North Palm Beach, FL (33408)

9:39 AM EDT on September 05, 2015 (GMT -0400)
Juno Isles | | Change Station
CLOSE
Current Station
Personal Weather Station
Location: N Palm Beach, FL
Elevation: 39 ft
Nearby Weather Stations

Elev 39 ft 26.86 °N, 80.06 °W | Updated 5 minutes ago

Partly Cloudy
Partly Cloudy
87.3 °F
Feels Like 99 °F
N
2.2
Wind Variable Wind from WSW

Today
High -- | Low -- °F
--% Chance of Precip.
Yesterday
High -- | Low -- °F
Precip. -- in
7:01 AM 7:36 PM
Waning Gibbous, 48% visible
Pressure 30.00 in
Visibility 10.0 miles
Clouds Few 3000 ft
Scattered Clouds 25000 ft
Heat Index 99 °F
Dew Point 77 °F
Humidity 71%
Rainfall 0.00 in
Snow Depth Not available.
UV 2 out of 12
Pollen 2.00 out of 12
Air Quality Not available.
Flu Activity Not available.
METAR KPBI 051253Z 32004KT 10SM FEW030 SCT250 27/25 A3000 RMK AO2 SLP158 OCNL LTGIC DSNT SE CB DSNT SE T02720250
Pressure 30.00 in
Visibility 10.0 miles
Clouds Few 3000 ft
Scattered Clouds 25000 ft
Heat Index 99 °F
Dew Point 77 °F
Humidity 71%
Rainfall 0.00 in
Snow Depth Not available.
UV 2 out of 12
Pollen 2.00 out of 12
Air Quality Not available.
Flu Activity Not available.
METAR KPBI 051253Z 32004KT 10SM FEW030 SCT250 27/25 A3000 RMK AO2 SLP158 OCNL LTGIC DSNT SE CB DSNT SE T02720250

10-Day Weather Forecast

×

Almanac

Astronomy

Sep. 05, 2015 Rise Set
Actual Time
Civil Twilight
Nautical Twilight
Astronomical Twilight
Moon
Length of Visible Light
Length of Day
Tomorrow will be .
, % of the Moon is Illuminated

Today's Extremes

State Highs State Lows

Community

WunderPhotos

Upload Photos

1,852,454 photos uploaded!

WunderBlogs® & News

Nearby

Air Quality

  Air Quality AQ Index Pollutant
Not available.

Snow Depth

Station Depth Elevation

Earthquake Activity

City Distance Mag. Time & Date
Minimum magnitude displayed is 2.5.

Coastal Water Temperatures

Place Temperature

Stations

Nearby Weather Stations

Station Location Temp. Windchill Dew Point Humidity Wind Precip. Elev Updated Type